createdAt,value
2022-09-21T00:02:00.319Z,99.90
2022-09-21T00:04:27.174Z,99.90
2022-09-21T00:06:54.296Z,99.90
2022-09-21T00:09:21.081Z,99.90
2022-09-21T00:11:49.910Z,99.90
2022-09-21T00:14:17.001Z,99.90
2022-09-21T00:16:44.378Z,99.90
2022-09-21T00:19:11.863Z,99.90
2022-09-21T00:21:39.436Z,99.90
2022-09-21T00:24:07.134Z,99.90
2022-09-21T00:26:34.113Z,99.90
2022-09-21T00:29:03.884Z,99.90
2022-09-21T00:31:32.267Z,99.90
2022-09-21T00:34:00.240Z,99.90
2022-09-21T00:36:28.662Z,99.90
2022-09-21T00:38:57.062Z,99.90
2022-09-21T00:41:25.313Z,99.90
2022-09-21T00:44:30.528Z,99.90
2022-09-21T00:47:01.639Z,99.90
2022-09-21T00:49:29.227Z,99.90
2022-09-21T00:51:59.199Z,99.90
2022-09-21T00:54:29.636Z,99.90
2022-09-21T00:56:59.970Z,99.90
2022-09-21T00:59:30.246Z,99.90
2022-09-21T01:01:59.587Z,99.90
2022-09-21T01:04:28.343Z,99.90
2022-09-21T01:06:57.067Z,99.90
2022-09-21T01:09:24.212Z,99.90
2022-09-21T01:12:00.140Z,99.90
2022-09-21T01:14:43.696Z,99.90
2022-09-21T01:17:18.726Z,99.90
2022-09-21T01:20:14.243Z,99.90
2022-09-21T01:22:54.543Z,99.90
2022-09-21T01:25:32.312Z,99.90
2022-09-21T01:28:22.167Z,99.90
2022-09-21T01:30:53.464Z,99.90
2022-09-21T01:33:26.189Z,99.90
2022-09-21T01:35:57.413Z,99.90
2022-09-21T01:38:27.039Z,99.90
2022-09-21T01:40:59.730Z,99.90
2022-09-21T01:43:34.425Z,99.90
2022-09-21T01:46:05.863Z,99.90
2022-09-21T01:48:38.026Z,99.90
2022-09-21T01:51:10.121Z,99.90
2022-09-21T01:53:41.486Z,99.90
2022-09-21T01:56:13.394Z,99.90
2022-09-21T01:58:46.811Z,99.90
2022-09-21T02:01:18.348Z,99.90
2022-09-21T02:03:49.488Z,99.90
2022-09-21T02:06:18.118Z,99.90
2022-09-21T02:08:45.814Z,99.90
2022-09-21T02:11:13.932Z,99.90
2022-09-21T02:13:45.201Z,99.90
2022-09-21T02:16:33.209Z,99.90
2022-09-21T02:19:11.406Z,99.90
2022-09-21T02:21:51.407Z,99.90
2022-09-21T02:24:30.241Z,99.90
2022-09-21T02:27:03.899Z,99.90
2022-09-21T02:29:41.390Z,99.90
2022-09-21T02:32:15.719Z,99.90
2022-09-21T02:34:47.054Z,99.90
2022-09-21T02:37:22.255Z,99.90
2022-09-21T02:39:56.186Z,99.90
2022-09-21T02:42:28.114Z,99.90
2022-09-21T02:45:01.214Z,99.90
2022-09-21T02:47:34.923Z,99.90
2022-09-21T02:50:06.373Z,99.90
2022-09-21T02:52:35.608Z,99.90
2022-09-21T02:55:05.262Z,99.90
2022-09-21T02:57:32.108Z,99.90
2022-09-21T02:59:59.280Z,99.90
2022-09-21T03:02:37.798Z,99.90
2022-09-21T03:05:05.888Z,99.90
2022-09-21T03:07:32.994Z,99.90
2022-09-21T03:10:00.469Z,99.90
2022-09-21T03:12:27.348Z,99.90
2022-09-21T03:14:54.510Z,99.90
2022-09-21T03:17:21.311Z,99.90
2022-09-21T03:19:49.802Z,99.90
2022-09-21T03:22:17.866Z,99.90
2022-09-21T03:24:47.603Z,99.90
2022-09-21T03:27:15.596Z,99.90
2022-09-21T03:29:42.659Z,99.90
2022-09-21T03:32:09.606Z,99.90
2022-09-21T03:34:37.077Z,99.90
2022-09-21T03:37:07.606Z,99.90
2022-09-21T03:39:35.420Z,99.90
2022-09-21T03:42:02.604Z,99.90
2022-09-21T03:44:29.554Z,99.90
2022-09-21T03:46:57.976Z,99.90
2022-09-21T03:49:25.543Z,99.90
2022-09-21T03:51:52.351Z,99.90
2022-09-21T03:54:21.208Z,99.90
2022-09-21T03:56:48.031Z,99.90
2022-09-21T03:59:15.680Z,99.90
2022-09-21T04:01:43.042Z,99.90
2022-09-21T04:04:10.816Z,99.90
2022-09-21T04:06:37.660Z,99.90
2022-09-21T04:09:05.091Z,99.90
2022-09-21T04:11:33.298Z,99.90
2022-09-21T04:14:00.532Z,99.90
2022-09-21T04:16:28.180Z,99.90
2022-09-21T04:18:55.734Z,99.90
2022-09-21T04:21:22.924Z,99.90
2022-09-21T04:23:50.158Z,99.90
2022-09-21T04:26:23.002Z,99.90
2022-09-21T04:28:51.956Z,99.90
2022-09-21T04:31:18.947Z,99.90
2022-09-21T04:33:49.111Z,99.90
2022-09-21T04:36:16.061Z,99.90
2022-09-21T04:38:42.945Z,99.90
2022-09-21T04:41:09.895Z,99.90
2022-09-21T04:43:37.010Z,99.90
2022-09-21T04:46:07.303Z,99.90
2022-09-21T04:48:34.569Z,99.90
2022-09-21T04:51:01.602Z,99.90
2022-09-21T04:53:28.935Z,99.90
2022-09-21T04:55:55.930Z,99.90
2022-09-21T04:58:24.608Z,99.90
2022-09-21T05:00:52.361Z,99.90
2022-09-21T05:03:21.300Z,99.90
2022-09-21T05:05:48.518Z,99.90
2022-09-21T05:08:16.319Z,99.90
2022-09-21T05:10:44.017Z,99.90
2022-09-21T05:13:11.120Z,99.90
2022-09-21T05:15:39.406Z,99.90
2022-09-21T05:18:07.078Z,99.90
2022-09-21T05:20:35.181Z,99.90
2022-09-21T05:23:02.379Z,99.90
2022-09-21T05:25:29.248Z,99.90
2022-09-21T05:27:56.724Z,99.90
2022-09-21T05:30:23.988Z,99.90
2022-09-21T05:33:01.375Z,99.90
2022-09-21T05:35:36.967Z,99.90
2022-09-21T05:38:10.359Z,99.90
2022-09-21T05:40:37.779Z,99.90
2022-09-21T05:43:05.360Z,99.90
2022-09-21T05:45:32.948Z,99.90
2022-09-21T05:48:11.128Z,99.90
2022-09-21T05:50:52.176Z,99.90
2022-09-21T05:53:38.074Z,99.90
2022-09-21T05:56:11.561Z,99.90
2022-09-21T05:58:47.007Z,99.90
2022-09-21T06:01:22.982Z,99.90
2022-09-21T06:03:50.880Z,99.90
2022-09-21T06:06:19.584Z,99.90
2022-09-21T06:08:47.228Z,99.90
2022-09-21T06:11:14.466Z,99.90
2022-09-21T06:13:41.705Z,99.90
2022-09-21T06:16:08.648Z,99.90
2022-09-21T06:18:38.505Z,99.90
2022-09-21T06:21:05.807Z,99.90
2022-09-21T06:23:34.734Z,99.90
2022-09-21T06:26:01.614Z,99.90
2022-09-21T06:28:29.966Z,99.90
2022-09-21T06:30:58.127Z,99.90
2022-09-21T06:33:25.786Z,99.90
2022-09-21T06:35:54.460Z,99.90
2022-09-21T06:38:21.890Z,99.90
2022-09-21T06:40:50.789Z,99.90
2022-09-21T06:43:18.222Z,99.90
2022-09-21T06:45:53.371Z,99.90
2022-09-21T06:48:20.491Z,99.90
2022-09-21T06:50:47.552Z,99.90
2022-09-21T06:53:14.942Z,99.90
2022-09-21T06:55:42.224Z,99.90
2022-09-21T06:58:12.969Z,99.90
2022-09-21T07:00:40.099Z,99.90
2022-09-21T07:03:09.928Z,99.90
2022-09-21T07:05:37.075Z,99.90
2022-09-21T07:08:04.254Z,99.90
2022-09-21T07:10:31.594Z,99.90
2022-09-21T07:13:03.496Z,99.90
2022-09-21T07:15:32.099Z,99.90
2022-09-21T07:18:06.268Z,99.90
2022-09-21T07:20:33.313Z,99.90
2022-09-21T07:23:00.473Z,99.90
2022-09-21T07:25:27.726Z,99.90
2022-09-21T07:27:54.519Z,99.90
2022-09-21T07:30:21.651Z,99.90
2022-09-21T07:32:49.952Z,99.90
2022-09-21T07:35:16.735Z,99.90
2022-09-21T07:37:43.501Z,99.90
2022-09-21T07:40:10.991Z,99.90
2022-09-21T07:42:37.774Z,99.90
2022-09-21T07:45:05.747Z,99.90
2022-09-21T07:47:32.480Z,99.90
2022-09-21T07:50:01.030Z,99.90
2022-09-21T07:52:28.018Z,99.90
2022-09-21T07:54:55.194Z,99.90
2022-09-21T07:57:40.393Z,99.90
2022-09-21T08:00:09.252Z,99.90
2022-09-21T08:02:36.141Z,99.90
2022-09-21T08:05:04.935Z,99.90
2022-09-21T08:07:32.612Z,99.90
2022-09-21T08:09:59.993Z,99.90
2022-09-21T08:12:26.898Z,99.90
2022-09-21T08:14:54.185Z,99.90
2022-09-21T08:17:20.941Z,99.90
2022-09-21T08:19:48.019Z,99.90
2022-09-21T08:22:16.171Z,99.90
2022-09-21T08:24:44.673Z,99.90
2022-09-21T08:27:11.591Z,99.90
2022-09-21T08:29:38.722Z,99.90
2022-09-21T08:32:05.712Z,99.90
2022-09-21T08:34:33.020Z,99.90
2022-09-21T08:37:00.403Z,99.90
2022-09-21T08:39:29.375Z,99.90
2022-09-21T08:42:06.096Z,99.90
2022-09-21T08:44:40.101Z,99.90
2022-09-21T08:47:13.544Z,99.90
2022-09-21T08:49:43.466Z,99.90
2022-09-21T08:52:16.795Z,99.90
2022-09-21T08:54:51.795Z,99.90
2022-09-21T08:57:20.029Z,99.90
2022-09-21T08:59:48.512Z,99.90
2022-09-21T09:02:46.157Z,99.90
2022-09-21T09:05:26.141Z,99.90
2022-09-21T09:08:12.057Z,99.90
2022-09-21T09:10:51.405Z,99.90
2022-09-21T09:13:39.217Z,99.90
2022-09-21T09:16:16.025Z,99.90
2022-09-21T09:18:48.985Z,99.90
2022-09-21T09:21:29.920Z,99.90
2022-09-21T09:24:02.642Z,99.90
2022-09-21T09:26:36.197Z,99.90
2022-09-21T09:29:12.818Z,99.90
2022-09-21T09:31:40.826Z,99.90
2022-09-21T09:34:13.399Z,99.90
2022-09-21T09:37:00.536Z,90.80
2022-09-21T09:39:30.214Z,87.00
2022-09-21T09:42:09.650Z,81.30
2022-09-21T09:45:01.183Z,67.50
2022-09-21T09:47:41.322Z,61.70
2022-09-21T09:50:13.540Z,63.30
2022-09-21T09:52:40.647Z,61.90
2022-09-21T09:55:16.989Z,60.20
2022-09-21T09:57:45.711Z,47.30
2022-09-21T10:00:15.656Z,44.60
2022-09-21T10:02:50.339Z,52.30
2022-09-21T10:05:23.453Z,30.70
2022-09-21T10:07:51.395Z,10.70
2022-09-21T10:10:32.940Z,7.10
2022-09-21T10:13:10.574Z,6.20
2022-09-21T10:15:44.139Z,1.00
2022-09-21T10:18:21.009Z,1.00
2022-09-21T10:21:10.004Z,1.00
2022-09-21T10:23:39.331Z,1.00
2022-09-21T10:26:09.829Z,1.00
2022-09-21T10:28:55.461Z,1.00
2022-09-21T10:31:24.182Z,1.00
2022-09-21T10:33:54.525Z,1.00
2022-09-21T10:36:31.097Z,1.00
2022-09-21T10:39:21.931Z,1.00
2022-09-21T10:41:54.293Z,1.00
2022-09-21T10:44:26.716Z,1.00
2022-09-21T10:49:24.246Z,1.00
2022-09-21T10:51:54.823Z,1.00
2022-09-21T10:54:28.447Z,1.00
2022-09-21T10:56:59.355Z,1.00
2022-09-21T10:59:29.648Z,1.00
2022-09-21T11:01:58.823Z,1.00
2022-09-21T11:04:36.809Z,1.00
2022-09-21T11:07:13.910Z,1.00
2022-09-21T11:09:47.700Z,1.00
2022-09-21T11:12:35.684Z,1.00
2022-09-21T11:15:16.031Z,1.00
2022-09-21T11:17:47.259Z,1.00
2022-09-21T11:20:25.353Z,1.00
2022-09-21T11:23:04.801Z,1.00
2022-09-21T11:25:39.607Z,1.00
2022-09-21T11:28:15.080Z,1.00
2022-09-21T11:31:09.922Z,1.00
2022-09-21T11:33:55.000Z,1.00
2022-09-21T11:36:31.786Z,1.00
2022-09-21T11:39:05.735Z,1.00
2022-09-21T11:41:45.519Z,1.00
2022-09-21T11:44:56.212Z,1.00
2022-09-21T11:47:44.246Z,1.00
2022-09-21T11:50:48.817Z,1.00
2022-09-21T11:53:40.316Z,1.00
2022-09-21T11:56:34.893Z,1.00
2022-09-21T11:59:16.246Z,1.00
2022-09-21T12:02:03.191Z,1.00
2022-09-21T12:04:42.502Z,1.00
2022-09-21T12:07:27.117Z,1.00
2022-09-21T12:10:21.042Z,1.00
2022-09-21T12:12:55.230Z,1.00
2022-09-21T12:15:26.631Z,1.00
2022-09-21T12:18:03.200Z,1.00
2022-09-21T12:20:41.202Z,1.00
2022-09-21T12:23:14.878Z,1.00
2022-09-21T12:25:47.280Z,99.90
2022-09-21T12:28:20.995Z,99.90
2022-09-21T12:30:51.545Z,99.90
2022-09-21T12:33:29.140Z,99.90
2022-09-21T12:36:03.549Z,99.90
2022-09-21T12:38:34.789Z,99.90
2022-09-21T12:41:17.012Z,99.90
2022-09-21T12:43:50.029Z,99.90
2022-09-21T12:46:22.186Z,99.90
2022-09-21T12:48:49.345Z,1.00
2022-09-21T12:51:23.233Z,1.00
2022-09-21T12:53:53.732Z,1.00
2022-09-21T12:56:31.847Z,1.00
2022-09-21T12:59:16.292Z,1.00
2022-09-21T13:01:50.426Z,1.00
2022-09-21T13:04:45.008Z,1.00
2022-09-21T13:07:49.631Z,99.90
2022-09-21T13:10:20.323Z,99.90
2022-09-21T13:12:53.038Z,99.90
2022-09-21T13:15:25.710Z,99.90
2022-09-21T13:18:00.004Z,99.90
2022-09-21T13:20:32.841Z,99.90
2022-09-21T13:23:02.262Z,99.90
2022-09-21T13:25:30.986Z,99.90
2022-09-21T13:28:20.130Z,99.90
2022-09-21T13:30:49.420Z,99.90
2022-09-21T13:33:38.792Z,99.90
2022-09-21T13:36:26.599Z,99.90
2022-09-21T13:39:12.780Z,99.90
2022-09-21T13:42:01.780Z,99.90
2022-09-21T13:44:40.891Z,99.90
2022-09-21T13:47:09.539Z,99.90
2022-09-21T13:49:46.409Z,1.00
2022-09-21T13:52:30.321Z,1.00
2022-09-21T13:55:01.449Z,1.00
2022-09-21T13:57:34.487Z,1.00
2022-09-21T14:00:36.310Z,1.00
2022-09-21T14:03:06.211Z,1.00
2022-09-21T14:05:39.906Z,1.00
2022-09-21T14:08:18.508Z,1.00
2022-09-21T14:10:53.238Z,1.00
2022-09-21T14:13:28.462Z,1.00
2022-09-21T14:15:55.746Z,99.90
2022-09-21T14:18:36.992Z,99.90
2022-09-21T14:21:18.868Z,99.90
2022-09-21T14:24:23.250Z,99.90
2022-09-21T14:27:02.986Z,99.90
2022-09-21T14:29:38.399Z,99.90
2022-09-21T14:32:13.866Z,99.90
2022-09-21T14:34:43.240Z,99.90
2022-09-21T14:37:20.415Z,99.90
2022-09-21T14:39:49.700Z,99.90
2022-09-21T14:42:23.131Z,99.90
2022-09-21T14:44:51.640Z,99.90
2022-09-21T14:47:35.961Z,99.90
2022-09-21T14:50:30.450Z,99.90
2022-09-21T14:53:31.155Z,99.90
2022-09-21T14:56:30.523Z,99.90
2022-09-21T14:59:19.163Z,99.90
2022-09-21T15:01:59.573Z,99.90
2022-09-21T15:04:32.148Z,99.90
2022-09-21T15:07:33.457Z,99.90
2022-09-21T15:10:44.543Z,99.90
2022-09-21T15:13:23.762Z,99.90
2022-09-21T15:16:18.014Z,99.90
2022-09-21T15:18:47.694Z,99.90
2022-09-21T15:21:24.343Z,99.90
2022-09-21T15:23:52.380Z,99.90
2022-09-21T15:26:23.984Z,99.90
2022-09-21T15:29:09.210Z,99.90
2022-09-21T15:31:40.436Z,99.90
2022-09-21T15:34:09.298Z,99.90
2022-09-21T15:36:39.700Z,99.90
2022-09-21T15:39:07.449Z,99.90
2022-09-21T15:41:43.203Z,99.90
2022-09-21T15:44:15.256Z,99.90
2022-09-21T15:46:46.998Z,99.90
2022-09-21T15:49:17.829Z,99.90
2022-09-21T15:51:46.564Z,99.90
2022-09-21T15:54:30.001Z,99.90
2022-09-21T15:56:57.242Z,99.90
2022-09-21T15:59:24.395Z,99.90
2022-09-21T16:01:55.547Z,99.90
2022-09-21T16:04:24.849Z,99.90
2022-09-21T16:07:03.146Z,99.90
2022-09-21T16:09:40.520Z,1.40
2022-09-21T16:12:40.178Z,1.00
2022-09-21T16:15:22.766Z,1.00
2022-09-21T16:18:01.322Z,1.00
2022-09-21T16:20:44.327Z,1.00
2022-09-21T16:23:17.046Z,1.00
2022-09-21T16:25:44.627Z,1.00
2022-09-21T16:28:33.789Z,1.00
2022-09-21T16:31:01.067Z,1.00
2022-09-21T16:34:17.643Z,1.00
2022-09-21T16:36:45.698Z,1.00
2022-09-21T16:39:15.936Z,1.00
2022-09-21T16:41:49.647Z,1.00
2022-09-21T16:44:22.669Z,1.00
2022-09-21T16:46:53.877Z,1.00
2022-09-21T16:49:30.037Z,1.00
2022-09-21T16:51:58.552Z,1.00
2022-09-21T16:54:27.191Z,1.00
2022-09-21T16:56:56.796Z,1.00
2022-09-21T16:59:24.580Z,1.00
2022-09-21T17:01:56.370Z,1.00
2022-09-21T17:04:26.850Z,1.00
2022-09-21T17:06:55.655Z,1.00
2022-09-21T17:09:29.227Z,1.00
2022-09-21T17:11:59.352Z,1.00
2022-09-21T17:14:26.186Z,1.00
2022-09-21T17:16:56.500Z,1.00
2022-09-21T17:19:25.317Z,1.00
2022-09-21T17:21:53.106Z,1.00
2022-09-21T17:24:39.215Z,1.00
2022-09-21T17:27:08.107Z,1.00
2022-09-21T17:29:37.064Z,1.00
2022-09-21T17:32:06.304Z,1.00
2022-09-21T17:34:35.535Z,1.00
2022-09-21T17:37:02.679Z,1.00
2022-09-21T17:39:29.554Z,1.00
2022-09-21T17:42:02.685Z,1.00
2022-09-21T17:44:47.999Z,1.00
2022-09-21T17:47:23.611Z,1.00
2022-09-21T17:49:52.318Z,1.00
2022-09-21T17:52:39.182Z,1.00
2022-09-21T17:55:08.416Z,1.00
2022-09-21T17:57:59.532Z,1.00
2022-09-21T18:00:34.457Z,1.00
2022-09-21T18:03:02.469Z,1.00
2022-09-21T18:05:31.280Z,1.00
2022-09-21T18:07:59.194Z,1.00
2022-09-21T18:10:27.482Z,1.00
2022-09-21T18:13:16.766Z,1.00
2022-09-21T18:15:57.054Z,1.00
2022-09-21T18:18:42.889Z,1.00
2022-09-21T18:21:19.760Z,1.00
2022-09-21T18:24:01.172Z,1.00
2022-09-21T18:26:28.527Z,1.00
2022-09-21T18:28:59.132Z,1.00
2022-09-21T18:31:42.922Z,1.00
2022-09-21T18:34:29.223Z,1.00
2022-09-21T18:37:08.289Z,1.00
2022-09-21T18:39:47.899Z,1.00
2022-09-21T18:42:29.469Z,1.00
2022-09-21T18:45:05.577Z,1.00
2022-09-21T18:47:41.584Z,1.00
2022-09-21T18:50:19.900Z,1.00
2022-09-21T18:52:57.612Z,1.00
2022-09-21T18:55:27.065Z,1.00
2022-09-21T18:57:55.047Z,1.00
2022-09-21T19:00:22.968Z,1.00
2022-09-21T19:03:15.390Z,1.00
2022-09-21T19:05:41.007Z,1.00
2022-09-21T19:08:17.467Z,1.00
2022-09-21T19:10:51.670Z,1.00
2022-09-21T19:13:42.509Z,1.00
2022-09-21T19:16:22.837Z,1.00
2022-09-21T19:19:01.018Z,1.00
2022-09-21T19:21:40.307Z,1.00
2022-09-21T19:24:22.755Z,1.00
2022-09-21T19:27:11.050Z,1.00
2022-09-21T19:30:07.094Z,1.00
2022-09-21T19:32:39.800Z,1.00
2022-09-21T19:35:22.049Z,1.00
2022-09-21T19:37:55.094Z,1.00
2022-09-21T19:40:26.232Z,1.00
2022-09-21T19:43:05.190Z,1.00
2022-09-21T19:45:42.610Z,1.00
2022-09-21T19:48:13.006Z,1.00
2022-09-21T19:50:48.036Z,1.00
2022-09-21T19:53:38.465Z,1.00
2022-09-21T19:56:36.638Z,1.00
2022-09-21T19:59:29.738Z,1.00
2022-09-21T20:02:03.322Z,1.00
2022-09-21T20:04:39.513Z,1.00
2022-09-21T20:07:19.785Z,1.00
2022-09-21T20:10:04.618Z,1.00
2022-09-21T20:15:31.835Z,1.00
2022-09-21T20:18:11.789Z,1.00
2022-09-21T20:20:40.313Z,1.00
2022-09-21T20:23:17.211Z,1.00
2022-09-21T20:26:04.301Z,1.00
2022-09-21T20:28:38.197Z,1.00
2022-09-21T20:31:07.641Z,1.00
2022-09-21T20:33:38.882Z,1.00
2022-09-21T20:36:07.236Z,1.00
2022-09-21T20:38:41.717Z,1.00
2022-09-21T20:41:15.312Z,1.00
2022-09-21T20:43:45.520Z,1.00
2022-09-21T20:46:22.861Z,1.00
2022-09-21T20:49:08.993Z,1.00
2022-09-21T20:51:50.677Z,1.00
2022-09-21T20:57:02.600Z,1.00
2022-09-21T20:59:30.971Z,1.00
2022-09-21T21:01:57.942Z,1.00
2022-09-21T21:04:25.123Z,1.00
2022-09-21T21:06:52.231Z,1.00
2022-09-21T21:09:19.279Z,1.00
2022-09-21T21:11:46.420Z,1.00
2022-09-21T21:14:13.415Z,1.00
2022-09-21T21:16:41.723Z,2.60
2022-09-21T21:19:08.606Z,7.80
2022-09-21T21:21:35.956Z,11.70
2022-09-21T21:24:21.377Z,17.20
2022-09-21T21:27:01.804Z,12.40
2022-09-21T21:29:29.975Z,15.70
2022-09-21T21:31:59.842Z,16.00
2022-09-21T21:34:26.786Z,17.10
2022-09-21T21:36:54.291Z,21.70
2022-09-21T21:39:21.023Z,26.50
2022-09-21T21:41:48.178Z,27.40
2022-09-21T21:44:15.715Z,26.20
2022-09-21T21:46:43.661Z,26.50
2022-09-21T21:49:11.763Z,34.90
2022-09-21T21:51:38.989Z,31.80
2022-09-21T21:54:06.133Z,24.20
2022-09-21T21:56:33.491Z,23.60
2022-09-21T21:59:00.389Z,20.00
2022-09-21T22:01:29.571Z,21.10
2022-09-21T22:03:58.354Z,29.60
2022-09-21T22:06:28.036Z,37.10
2022-09-21T22:08:56.165Z,37.30
2022-09-21T22:11:25.308Z,38.00
2022-09-21T22:13:56.388Z,40.80
2022-09-21T22:16:25.345Z,40.10
2022-09-21T22:18:52.862Z,48.90
2022-09-21T22:21:26.522Z,49.40
2022-09-21T22:23:56.307Z,47.50
2022-09-21T22:26:24.592Z,53.90
2022-09-21T22:28:53.300Z,68.80
2022-09-21T22:31:22.656Z,53.50
2022-09-21T22:33:49.683Z,52.00
2022-09-21T22:36:18.704Z,53.00
2022-09-21T22:38:46.463Z,62.00
2022-09-21T22:41:19.298Z,72.10
2022-09-21T22:43:47.363Z,78.60
2022-09-21T22:46:16.775Z,88.30
2022-09-21T22:48:44.534Z,92.50
2022-09-21T22:51:12.143Z,97.40
2022-09-21T22:53:39.267Z,99.90
2022-09-21T22:56:08.461Z,99.90
2022-09-21T22:58:38.184Z,99.90
2022-09-21T23:01:06.502Z,99.90
2022-09-21T23:03:33.885Z,99.90
2022-09-21T23:06:01.576Z,99.90
2022-09-21T23:08:29.136Z,99.90
2022-09-21T23:10:56.891Z,99.90
2022-09-21T23:13:24.122Z,92.20
2022-09-21T23:15:52.586Z,84.90
2022-09-21T23:18:19.808Z,70.00
2022-09-21T23:20:56.338Z,72.40
2022-09-21T23:23:24.224Z,84.10
2022-09-21T23:26:00.934Z,85.70
2022-09-21T23:28:28.264Z,87.40
2022-09-21T23:30:58.178Z,99.90
2022-09-21T23:33:25.313Z,99.90
2022-09-21T23:35:52.463Z,99.90
2022-09-21T23:38:19.238Z,99.90
2022-09-21T23:40:46.133Z,99.90
2022-09-21T23:43:13.421Z,99.90
2022-09-21T23:45:42.111Z,99.90
2022-09-21T23:48:10.312Z,99.90
2022-09-21T23:50:37.041Z,99.90
2022-09-21T23:53:04.324Z,99.90
2022-09-21T23:55:31.126Z,99.90
2022-09-21T23:57:58.256Z,96.70
